sensor_id;sensor_type;location;lat;lon;timestamp;P1;durP1;ratioP1;P2;durP2;ratioP2
41141;SDS011;63666;52.284;20.890;2023-04-03T00:02:02;3.80;;;1.70;;
41141;SDS011;63666;52.284;20.890;2023-04-03T00:04:38;3.50;;;1.60;;
41141;SDS011;63666;52.284;20.890;2023-04-03T00:07:15;3.30;;;1.50;;
41141;SDS011;63666;52.284;20.890;2023-04-03T00:09:53;3.90;;;1.80;;
41141;SDS011;63666;52.284;20.890;2023-04-03T00:12:27;3.60;;;1.50;;
41141;SDS011;63666;52.284;20.890;2023-04-03T00:15:05;4.20;;;1.60;;
41141;SDS011;63666;52.284;20.890;2023-04-03T00:17:44;3.90;;;1.70;;
41141;SDS011;63666;52.284;20.890;2023-04-03T00:20:22;3.60;;;1.50;;
41141;SDS011;63666;52.284;20.890;2023-04-03T00:23:01;3.20;;;1.60;;
41141;SDS011;63666;52.284;20.890;2023-04-03T00:25:38;3.90;;;1.40;;
41141;SDS011;63666;52.284;20.890;2023-04-03T00:28:14;3.50;;;1.40;;
41141;SDS011;63666;52.284;20.890;2023-04-03T00:30:51;3.10;;;1.30;;
41141;SDS011;63666;52.284;20.890;2023-04-03T00:33:28;3.00;;;1.30;;
41141;SDS011;63666;52.284;20.890;2023-04-03T00:36:08;3.20;;;1.40;;
41141;SDS011;63666;52.284;20.890;2023-04-03T00:38:44;3.60;;;1.50;;
41141;SDS011;63666;52.284;20.890;2023-04-03T00:41:20;3.30;;;1.50;;
41141;SDS011;63666;52.284;20.890;2023-04-03T00:43:56;3.40;;;1.30;;
41141;SDS011;63666;52.284;20.890;2023-04-03T00:46:52;3.50;;;1.40;;
41141;SDS011;63666;52.284;20.890;2023-04-03T00:49:29;3.20;;;1.50;;
41141;SDS011;63666;52.284;20.890;2023-04-03T00:52:03;3.80;;;1.40;;
41141;SDS011;63666;52.284;20.890;2023-04-03T00:54:39;3.90;;;1.50;;
41141;SDS011;63666;52.284;20.890;2023-04-03T00:57:16;3.70;;;1.30;;
41141;SDS011;63666;52.284;20.890;2023-04-03T00:59:55;3.80;;;1.80;;
41141;SDS011;63666;52.284;20.890;2023-04-03T01:02:34;3.30;;;1.30;;
41141;SDS011;63666;52.284;20.890;2023-04-03T01:05:14;2.60;;;1.10;;
41141;SDS011;63666;52.284;20.890;2023-04-03T01:07:51;3.60;;;1.30;;
41141;SDS011;63666;52.284;20.890;2023-04-03T01:10:30;2.80;;;1.20;;
41141;SDS011;63666;52.284;20.890;2023-04-03T01:13:24;2.60;;;1.20;;
41141;SDS011;63666;52.284;20.890;2023-04-03T01:16:04;3.60;;;1.30;;
41141;SDS011;63666;52.284;20.890;2023-04-03T01:18:42;3.40;;;1.50;;
41141;SDS011;63666;52.284;20.890;2023-04-03T01:21:43;2.90;;;1.20;;
41141;SDS011;63666;52.284;20.890;2023-04-03T01:24:37;3.70;;;1.30;;
41141;SDS011;63666;52.284;20.890;2023-04-03T01:27:14;3.10;;;1.30;;
41141;SDS011;63666;52.284;20.890;2023-04-03T01:29:51;3.80;;;1.30;;
41141;SDS011;63666;52.284;20.890;2023-04-03T01:32:29;2.90;;;1.00;;
41141;SDS011;63666;52.284;20.890;2023-04-03T01:35:06;2.90;;;1.20;;
41141;SDS011;63666;52.284;20.890;2023-04-03T01:37:41;3.20;;;1.30;;
41141;SDS011;63666;52.284;20.890;2023-04-03T01:40:16;3.20;;;1.20;;
41141;SDS011;63666;52.284;20.890;2023-04-03T01:42:53;3.30;;;1.20;;
41141;SDS011;63666;52.284;20.890;2023-04-03T01:45:30;3.10;;;1.10;;
41141;SDS011;63666;52.284;20.890;2023-04-03T01:48:06;2.60;;;1.00;;
41141;SDS011;63666;52.284;20.890;2023-04-03T01:50:45;2.70;;;1.00;;
41141;SDS011;63666;52.284;20.890;2023-04-03T01:53:22;2.60;;;1.20;;
41141;SDS011;63666;52.284;20.890;2023-04-03T01:55:57;3.40;;;1.20;;
41141;SDS011;63666;52.284;20.890;2023-04-03T01:58:35;2.90;;;1.00;;
41141;SDS011;63666;52.284;20.890;2023-04-03T02:01:13;3.00;;;1.10;;
41141;SDS011;63666;52.284;20.890;2023-04-03T02:03:50;3.10;;;1.10;;
41141;SDS011;63666;52.284;20.890;2023-04-03T02:06:25;3.30;;;1.20;;
41141;SDS011;63666;52.284;20.890;2023-04-03T02:09:02;2.70;;;1.00;;
41141;SDS011;63666;52.284;20.890;2023-04-03T02:11:39;2.70;;;1.10;;
41141;SDS011;63666;52.284;20.890;2023-04-03T02:14:16;3.00;;;1.10;;
41141;SDS011;63666;52.284;20.890;2023-04-03T02:16:52;2.80;;;1.00;;
41141;SDS011;63666;52.284;20.890;2023-04-03T02:19:27;3.20;;;1.30;;
41141;SDS011;63666;52.284;20.890;2023-04-03T02:22:02;3.00;;;1.10;;
41141;SDS011;63666;52.284;20.890;2023-04-03T02:24:37;2.90;;;1.10;;
41141;SDS011;63666;52.284;20.890;2023-04-03T02:27:16;3.00;;;1.00;;
41141;SDS011;63666;52.284;20.890;2023-04-03T02:29:52;3.30;;;1.30;;
41141;SDS011;63666;52.284;20.890;2023-04-03T02:32:28;3.00;;;1.10;;
41141;SDS011;63666;52.284;20.890;2023-04-03T02:35:09;2.80;;;1.00;;
41141;SDS011;63666;52.284;20.890;2023-04-03T02:37:44;3.20;;;1.10;;
41141;SDS011;63666;52.284;20.890;2023-04-03T02:40:21;2.90;;;1.10;;
41141;SDS011;63666;52.284;20.890;2023-04-03T02:42:55;2.80;;;0.90;;
41141;SDS011;63666;52.284;20.890;2023-04-03T02:45:31;3.20;;;1.00;;
41141;SDS011;63666;52.284;20.890;2023-04-03T02:48:05;2.50;;;0.90;;
41141;SDS011;63666;52.284;20.890;2023-04-03T02:50:39;2.90;;;1.10;;
41141;SDS011;63666;52.284;20.890;2023-04-03T02:53:15;2.60;;;1.00;;
41141;SDS011;63666;52.284;20.890;2023-04-03T02:55:50;3.00;;;1.10;;
41141;SDS011;63666;52.284;20.890;2023-04-03T02:58:28;2.80;;;1.00;;
41141;SDS011;63666;52.284;20.890;2023-04-03T03:01:04;2.90;;;1.00;;
41141;SDS011;63666;52.284;20.890;2023-04-03T03:03:39;2.20;;;0.90;;
41141;SDS011;63666;52.284;20.890;2023-04-03T03:06:16;2.50;;;1.00;;
41141;SDS011;63666;52.284;20.890;2023-04-03T03:08:55;2.90;;;1.00;;
41141;SDS011;63666;52.284;20.890;2023-04-03T03:11:30;2.30;;;1.00;;
41141;SDS011;63666;52.284;20.890;2023-04-03T03:14:04;2.70;;;0.80;;
41141;SDS011;63666;52.284;20.890;2023-04-03T03:16:38;3.00;;;1.10;;
41141;SDS011;63666;52.284;20.890;2023-04-03T03:19:11;2.90;;;1.10;;
41141;SDS011;63666;52.284;20.890;2023-04-03T03:21:46;3.20;;;1.00;;
41141;SDS011;63666;52.284;20.890;2023-04-03T03:24:23;2.50;;;0.90;;
41141;SDS011;63666;52.284;20.890;2023-04-03T03:26:58;2.70;;;1.00;;
41141;SDS011;63666;52.284;20.890;2023-04-03T03:29:34;3.30;;;1.00;;
41141;SDS011;63666;52.284;20.890;2023-04-03T03:32:07;3.60;;;1.10;;
41141;SDS011;63666;52.284;20.890;2023-04-03T03:34:41;3.20;;;1.00;;
41141;SDS011;63666;52.284;20.890;2023-04-03T03:37:18;3.90;;;1.10;;
41141;SDS011;63666;52.284;20.890;2023-04-03T03:39:52;3.20;;;1.10;;
41141;SDS011;63666;52.284;20.890;2023-04-03T03:42:26;2.70;;;1.00;;
41141;SDS011;63666;52.284;20.890;2023-04-03T03:45:02;3.40;;;1.10;;
41141;SDS011;63666;52.284;20.890;2023-04-03T03:47:37;3.60;;;1.20;;
41141;SDS011;63666;52.284;20.890;2023-04-03T03:50:13;2.90;;;1.10;;
41141;SDS011;63666;52.284;20.890;2023-04-03T03:52:55;3.10;;;1.10;;
41141;SDS011;63666;52.284;20.890;2023-04-03T03:55:30;2.90;;;1.10;;
41141;SDS011;63666;52.284;20.890;2023-04-03T03:58:10;3.20;;;1.10;;
41141;SDS011;63666;52.284;20.890;2023-04-03T04:00:46;4.80;;;1.20;;
41141;SDS011;63666;52.284;20.890;2023-04-03T04:03:28;2.70;;;1.00;;
41141;SDS011;63666;52.284;20.890;2023-04-03T04:06:05;3.10;;;1.20;;
41141;SDS011;63666;52.284;20.890;2023-04-03T04:08:40;3.00;;;1.00;;
41141;SDS011;63666;52.284;20.890;2023-04-03T04:11:14;3.70;;;1.00;;
41141;SDS011;63666;52.284;20.890;2023-04-03T04:13:50;3.10;;;1.00;;
41141;SDS011;63666;52.284;20.890;2023-04-03T04:16:25;3.20;;;0.90;;
41141;SDS011;63666;52.284;20.890;2023-04-03T04:18:59;3.00;;;1.20;;
41141;SDS011;63666;52.284;20.890;2023-04-03T04:21:38;2.80;;;1.00;;
41141;SDS011;63666;52.284;20.890;2023-04-03T04:24:13;3.00;;;1.10;;
41141;SDS011;63666;52.284;20.890;2023-04-03T04:26:49;2.90;;;1.00;;
41141;SDS011;63666;52.284;20.890;2023-04-03T04:29:24;3.70;;;1.20;;
41141;SDS011;63666;52.284;20.890;2023-04-03T04:31:58;3.40;;;1.20;;
41141;SDS011;63666;52.284;20.890;2023-04-03T04:34:33;2.90;;;1.00;;
41141;SDS011;63666;52.284;20.890;2023-04-03T04:37:07;2.90;;;1.00;;
41141;SDS011;63666;52.284;20.890;2023-04-03T04:39:46;3.50;;;1.10;;
41141;SDS011;63666;52.284;20.890;2023-04-03T04:42:20;3.80;;;1.20;;
41141;SDS011;63666;52.284;20.890;2023-04-03T04:44:56;3.30;;;1.00;;
41141;SDS011;63666;52.284;20.890;2023-04-03T04:47:30;3.30;;;1.00;;
41141;SDS011;63666;52.284;20.890;2023-04-03T04:50:07;2.60;;;0.90;;
41141;SDS011;63666;52.284;20.890;2023-04-03T04:52:43;2.80;;;0.90;;
41141;SDS011;63666;52.284;20.890;2023-04-03T04:55:20;2.30;;;0.90;;
41141;SDS011;63666;52.284;20.890;2023-04-03T04:57:55;2.80;;;1.00;;
41141;SDS011;63666;52.284;20.890;2023-04-03T05:00:33;3.10;;;1.00;;
41141;SDS011;63666;52.284;20.890;2023-04-03T05:03:07;3.00;;;1.00;;
41141;SDS011;63666;52.284;20.890;2023-04-03T05:05:43;2.60;;;0.90;;
41141;SDS011;63666;52.284;20.890;2023-04-03T05:08:17;3.20;;;1.00;;
41141;SDS011;63666;52.284;20.890;2023-04-03T05:10:57;3.40;;;1.00;;
41141;SDS011;63666;52.284;20.890;2023-04-03T05:13:31;3.10;;;1.00;;
41141;SDS011;63666;52.284;20.890;2023-04-03T05:16:09;3.10;;;0.90;;
41141;SDS011;63666;52.284;20.890;2023-04-03T05:18:43;3.20;;;1.10;;
41141;SDS011;63666;52.284;20.890;2023-04-03T05:21:17;2.40;;;0.80;;
41141;SDS011;63666;52.284;20.890;2023-04-03T05:23:54;2.80;;;0.90;;
41141;SDS011;63666;52.284;20.890;2023-04-03T05:26:30;2.60;;;1.00;;
41141;SDS011;63666;52.284;20.890;2023-04-03T05:29:06;3.40;;;1.00;;
41141;SDS011;63666;52.284;20.890;2023-04-03T05:31:41;2.60;;;0.90;;
41141;SDS011;63666;52.284;20.890;2023-04-03T05:34:18;2.60;;;1.00;;
41141;SDS011;63666;52.284;20.890;2023-04-03T05:36:56;2.40;;;0.90;;
41141;SDS011;63666;52.284;20.890;2023-04-03T05:39:32;4.20;;;1.20;;
41141;SDS011;63666;52.284;20.890;2023-04-03T05:42:13;2.70;;;0.90;;
41141;SDS011;63666;52.284;20.890;2023-04-03T05:44:49;3.20;;;0.90;;
41141;SDS011;63666;52.284;20.890;2023-04-03T05:47:24;3.80;;;1.10;;
41141;SDS011;63666;52.284;20.890;2023-04-03T05:49:58;2.40;;;0.90;;
41141;SDS011;63666;52.284;20.890;2023-04-03T05:52:33;2.30;;;0.90;;
41141;SDS011;63666;52.284;20.890;2023-04-03T05:55:12;3.30;;;0.90;;
41141;SDS011;63666;52.284;20.890;2023-04-03T05:57:56;3.60;;;1.00;;
41141;SDS011;63666;52.284;20.890;2023-04-03T06:00:30;2.90;;;1.00;;
41141;SDS011;63666;52.284;20.890;2023-04-03T06:03:05;3.40;;;1.00;;
41141;SDS011;63666;52.284;20.890;2023-04-03T06:05:39;2.90;;;1.00;;
41141;SDS011;63666;52.284;20.890;2023-04-03T06:08:14;2.70;;;0.90;;
41141;SDS011;63666;52.284;20.890;2023-04-03T06:10:47;2.70;;;0.90;;
41141;SDS011;63666;52.284;20.890;2023-04-03T06:13:22;2.70;;;0.90;;
41141;SDS011;63666;52.284;20.890;2023-04-03T06:15:57;2.70;;;0.80;;
41141;SDS011;63666;52.284;20.890;2023-04-03T06:18:31;3.20;;;0.90;;
41141;SDS011;63666;52.284;20.890;2023-04-03T06:21:06;2.50;;;0.80;;
41141;SDS011;63666;52.284;20.890;2023-04-03T06:23:41;3.20;;;1.00;;
41141;SDS011;63666;52.284;20.890;2023-04-03T06:26:17;3.20;;;0.90;;
41141;SDS011;63666;52.284;20.890;2023-04-03T06:28:52;3.10;;;0.90;;
41141;SDS011;63666;52.284;20.890;2023-04-03T06:31:28;2.30;;;0.80;;
41141;SDS011;63666;52.284;20.890;2023-04-03T06:34:03;2.70;;;0.90;;
41141;SDS011;63666;52.284;20.890;2023-04-03T06:36:40;2.90;;;0.90;;
41141;SDS011;63666;52.284;20.890;2023-04-03T06:39:19;2.30;;;1.00;;
41141;SDS011;63666;52.284;20.890;2023-04-03T06:41:58;3.10;;;1.00;;
41141;SDS011;63666;52.284;20.890;2023-04-03T06:44:33;3.50;;;1.00;;
41141;SDS011;63666;52.284;20.890;2023-04-03T06:47:10;3.30;;;1.00;;
41141;SDS011;63666;52.284;20.890;2023-04-03T06:49:45;3.40;;;1.20;;
41141;SDS011;63666;52.284;20.890;2023-04-03T06:52:20;3.00;;;1.10;;
41141;SDS011;63666;52.284;20.890;2023-04-03T06:54:55;3.50;;;1.20;;
41141;SDS011;63666;52.284;20.890;2023-04-03T06:57:30;3.80;;;1.10;;
41141;SDS011;63666;52.284;20.890;2023-04-03T07:00:06;4.00;;;1.30;;
41141;SDS011;63666;52.284;20.890;2023-04-03T07:02:42;4.00;;;1.20;;
41141;SDS011;63666;52.284;20.890;2023-04-03T07:05:19;4.70;;;1.40;;
41141;SDS011;63666;52.284;20.890;2023-04-03T07:07:54;4.00;;;1.40;;
41141;SDS011;63666;52.284;20.890;2023-04-03T07:10:27;5.00;;;1.40;;
41141;SDS011;63666;52.284;20.890;2023-04-03T07:13:02;4.40;;;1.30;;
41141;SDS011;63666;52.284;20.890;2023-04-03T07:15:37;4.80;;;1.40;;
41141;SDS011;63666;52.284;20.890;2023-04-03T07:18:11;4.40;;;1.50;;
41141;SDS011;63666;52.284;20.890;2023-04-03T07:20:46;4.20;;;1.40;;
41141;SDS011;63666;52.284;20.890;2023-04-03T07:23:23;4.10;;;1.40;;
41141;SDS011;63666;52.284;20.890;2023-04-03T07:25:59;3.90;;;1.50;;
41141;SDS011;63666;52.284;20.890;2023-04-03T07:28:37;4.30;;;1.30;;
41141;SDS011;63666;52.284;20.890;2023-04-03T07:31:22;4.90;;;1.80;;
41141;SDS011;63666;52.284;20.890;2023-04-03T07:33:58;4.00;;;1.40;;
41141;SDS011;63666;52.284;20.890;2023-04-03T07:36:35;3.70;;;1.40;;
41141;SDS011;63666;52.284;20.890;2023-04-03T07:39:12;4.60;;;1.50;;
41141;SDS011;63666;52.284;20.890;2023-04-03T07:41:48;4.40;;;1.40;;
41141;SDS011;63666;52.284;20.890;2023-04-03T07:44:26;4.20;;;1.30;;
41141;SDS011;63666;52.284;20.890;2023-04-03T07:47:02;5.50;;;1.50;;
41141;SDS011;63666;52.284;20.890;2023-04-03T07:49:43;4.50;;;1.70;;
41141;SDS011;63666;52.284;20.890;2023-04-03T07:52:18;4.40;;;1.50;;
41141;SDS011;63666;52.284;20.890;2023-04-03T07:54:59;4.80;;;1.60;;
41141;SDS011;63666;52.284;20.890;2023-04-03T07:57:36;4.90;;;1.50;;
41141;SDS011;63666;52.284;20.890;2023-04-03T08:00:13;4.70;;;1.60;;
41141;SDS011;63666;52.284;20.890;2023-04-03T08:02:48;5.10;;;1.60;;
41141;SDS011;63666;52.284;20.890;2023-04-03T08:05:25;5.40;;;1.60;;
41141;SDS011;63666;52.284;20.890;2023-04-03T08:08:00;4.20;;;1.50;;
41141;SDS011;63666;52.284;20.890;2023-04-03T08:10:38;3.90;;;1.60;;
41141;SDS011;63666;52.284;20.890;2023-04-03T08:13:13;4.80;;;1.60;;
41141;SDS011;63666;52.284;20.890;2023-04-03T08:15:52;4.80;;;1.70;;
41141;SDS011;63666;52.284;20.890;2023-04-03T08:18:28;3.70;;;1.40;;
41141;SDS011;63666;52.284;20.890;2023-04-03T08:21:06;4.50;;;1.60;;
41141;SDS011;63666;52.284;20.890;2023-04-03T08:23:43;4.70;;;1.50;;
41141;SDS011;63666;52.284;20.890;2023-04-03T08:26:20;4.20;;;1.60;;
41141;SDS011;63666;52.284;20.890;2023-04-03T08:28:54;4.80;;;1.60;;
41141;SDS011;63666;52.284;20.890;2023-04-03T08:31:30;4.70;;;1.80;;
41141;SDS011;63666;52.284;20.890;2023-04-03T08:34:06;4.70;;;1.70;;
41141;SDS011;63666;52.284;20.890;2023-04-03T08:36:48;4.10;;;1.50;;
41141;SDS011;63666;52.284;20.890;2023-04-03T08:39:22;4.60;;;1.50;;
41141;SDS011;63666;52.284;20.890;2023-04-03T08:42:00;4.70;;;1.60;;
41141;SDS011;63666;52.284;20.890;2023-04-03T08:44:42;4.40;;;1.60;;
41141;SDS011;63666;52.284;20.890;2023-04-03T08:47:41;4.00;;;1.50;;
41141;SDS011;63666;52.284;20.890;2023-04-03T08:50:21;3.70;;;1.40;;
41141;SDS011;63666;52.284;20.890;2023-04-03T08:55:43;3.70;;;1.30;;
41141;SDS011;63666;52.284;20.890;2023-04-03T08:58:22;3.90;;;1.20;;
41141;SDS011;63666;52.284;20.890;2023-04-03T09:01:00;4.20;;;1.30;;
41141;SDS011;63666;52.284;20.890;2023-04-03T09:03:42;3.60;;;1.30;;
41141;SDS011;63666;52.284;20.890;2023-04-03T09:06:20;4.00;;;1.40;;
41141;SDS011;63666;52.284;20.890;2023-04-03T09:09:09;4.60;;;1.50;;
41141;SDS011;63666;52.284;20.890;2023-04-03T09:11:56;4.00;;;1.40;;
41141;SDS011;63666;52.284;20.890;2023-04-03T09:14:44;3.90;;;1.30;;
41141;SDS011;63666;52.284;20.890;2023-04-03T09:17:40;3.20;;;1.40;;
41141;SDS011;63666;52.284;20.890;2023-04-03T09:20:30;4.60;;;1.30;;
41141;SDS011;63666;52.284;20.890;2023-04-03T09:23:24;4.00;;;1.30;;
41141;SDS011;63666;52.284;20.890;2023-04-03T09:26:05;4.30;;;1.50;;
41141;SDS011;63666;52.284;20.890;2023-04-03T09:28:42;4.10;;;1.40;;
41141;SDS011;63666;52.284;20.890;2023-04-03T09:31:23;4.20;;;1.50;;
41141;SDS011;63666;52.284;20.890;2023-04-03T09:34:05;3.80;;;1.30;;
41141;SDS011;63666;52.284;20.890;2023-04-03T09:36:46;3.50;;;1.40;;
41141;SDS011;63666;52.284;20.890;2023-04-03T09:39:26;3.30;;;1.20;;
41141;SDS011;63666;52.284;20.890;2023-04-03T09:42:04;3.70;;;1.30;;
41141;SDS011;63666;52.284;20.890;2023-04-03T09:44:55;3.80;;;1.40;;
41141;SDS011;63666;52.284;20.890;2023-04-03T09:47:46;4.40;;;1.40;;
41141;SDS011;63666;52.284;20.890;2023-04-03T09:50:25;4.00;;;1.30;;
41141;SDS011;63666;52.284;20.890;2023-04-03T09:53:06;3.70;;;1.40;;
41141;SDS011;63666;52.284;20.890;2023-04-03T09:56:03;3.50;;;1.30;;
41141;SDS011;63666;52.284;20.890;2023-04-03T09:58:46;3.30;;;1.30;;
41141;SDS011;63666;52.284;20.890;2023-04-03T10:01:28;3.90;;;1.30;;
41141;SDS011;63666;52.284;20.890;2023-04-03T10:04:12;4.50;;;1.40;;
41141;SDS011;63666;52.284;20.890;2023-04-03T10:06:50;3.70;;;1.20;;
41141;SDS011;63666;52.284;20.890;2023-04-03T10:09:26;3.40;;;1.20;;
41141;SDS011;63666;52.284;20.890;2023-04-03T10:12:03;3.60;;;1.20;;
41141;SDS011;63666;52.284;20.890;2023-04-03T10:14:54;3.50;;;1.40;;
41141;SDS011;63666;52.284;20.890;2023-04-03T10:17:42;4.10;;;1.40;;
41141;SDS011;63666;52.284;20.890;2023-04-03T10:20:32;3.10;;;1.30;;
41141;SDS011;63666;52.284;20.890;2023-04-03T10:23:20;2.90;;;1.20;;
41141;SDS011;63666;52.284;20.890;2023-04-03T10:28:51;3.90;;;1.50;;
41141;SDS011;63666;52.284;20.890;2023-04-03T10:31:36;3.10;;;1.20;;
41141;SDS011;63666;52.284;20.890;2023-04-03T10:34:22;3.40;;;1.30;;
41141;SDS011;63666;52.284;20.890;2023-04-03T10:37:05;3.80;;;1.40;;
41141;SDS011;63666;52.284;20.890;2023-04-03T10:39:54;3.80;;;1.30;;
41141;SDS011;63666;52.284;20.890;2023-04-03T10:42:38;3.70;;;1.40;;
41141;SDS011;63666;52.284;20.890;2023-04-03T10:45:23;3.70;;;1.50;;
41141;SDS011;63666;52.284;20.890;2023-04-03T10:50:52;3.30;;;1.50;;
41141;SDS011;63666;52.284;20.890;2023-04-03T10:53:37;3.60;;;1.30;;
41141;SDS011;63666;52.284;20.890;2023-04-03T10:56:19;3.90;;;1.50;;
41141;SDS011;63666;52.284;20.890;2023-04-03T10:59:01;3.60;;;1.40;;
41141;SDS011;63666;52.284;20.890;2023-04-03T11:01:54;3.30;;;1.30;;
41141;SDS011;63666;52.284;20.890;2023-04-03T11:04:36;3.50;;;1.20;;
41141;SDS011;63666;52.284;20.890;2023-04-03T11:07:22;3.20;;;1.20;;
41141;SDS011;63666;52.284;20.890;2023-04-03T11:10:03;3.60;;;1.30;;
41141;SDS011;63666;52.284;20.890;2023-04-03T11:12:48;3.10;;;1.20;;
41141;SDS011;63666;52.284;20.890;2023-04-03T11:15:31;3.10;;;1.30;;
41141;SDS011;63666;52.284;20.890;2023-04-03T11:18:11;3.60;;;1.30;;
41141;SDS011;63666;52.284;20.890;2023-04-03T11:20:57;3.50;;;1.30;;
41141;SDS011;63666;52.284;20.890;2023-04-03T11:23:36;3.50;;;1.50;;
41141;SDS011;63666;52.284;20.890;2023-04-03T11:26:21;3.80;;;1.40;;
41141;SDS011;63666;52.284;20.890;2023-04-03T11:29:00;3.60;;;1.40;;
41141;SDS011;63666;52.284;20.890;2023-04-03T11:31:47;3.30;;;1.30;;
41141;SDS011;63666;52.284;20.890;2023-04-03T11:34:36;3.10;;;1.20;;
41141;SDS011;63666;52.284;20.890;2023-04-03T11:37:21;3.60;;;1.20;;
41141;SDS011;63666;52.284;20.890;2023-04-03T11:40:03;3.20;;;1.40;;
41141;SDS011;63666;52.284;20.890;2023-04-03T11:42:45;2.90;;;1.10;;
41141;SDS011;63666;52.284;20.890;2023-04-03T11:45:29;3.70;;;1.20;;
41141;SDS011;63666;52.284;20.890;2023-04-03T11:48:45;3.40;;;1.10;;
41141;SDS011;63666;52.284;20.890;2023-04-03T11:51:53;3.10;;;1.10;;
41141;SDS011;63666;52.284;20.890;2023-04-03T11:54:49;4.30;;;1.30;;
41141;SDS011;63666;52.284;20.890;2023-04-03T12:01:10;3.70;;;1.40;;
41141;SDS011;63666;52.284;20.890;2023-04-03T12:04:11;3.10;;;1.40;;
41141;SDS011;63666;52.284;20.890;2023-04-03T12:07:00;3.00;;;1.20;;
41141;SDS011;63666;52.284;20.890;2023-04-03T12:13:17;3.30;;;1.20;;
41141;SDS011;63666;52.284;20.890;2023-04-03T12:15:56;3.30;;;1.40;;
41141;SDS011;63666;52.284;20.890;2023-04-03T12:18:57;3.50;;;1.20;;
41141;SDS011;63666;52.284;20.890;2023-04-03T12:24:42;2.80;;;1.10;;
41141;SDS011;63666;52.284;20.890;2023-04-03T12:27:25;3.40;;;1.40;;
41141;SDS011;63666;52.284;20.890;2023-04-03T12:30:16;3.50;;;1.30;;
41141;SDS011;63666;52.284;20.890;2023-04-03T12:33:13;3.20;;;1.10;;
41141;SDS011;63666;52.284;20.890;2023-04-03T12:36:06;3.00;;;1.00;;
41141;SDS011;63666;52.284;20.890;2023-04-03T12:39:05;3.40;;;1.20;;
41141;SDS011;63666;52.284;20.890;2023-04-03T12:41:56;2.90;;;1.20;;
41141;SDS011;63666;52.284;20.890;2023-04-03T12:44:46;3.50;;;1.20;;
41141;SDS011;63666;52.284;20.890;2023-04-03T12:47:33;3.00;;;1.00;;
41141;SDS011;63666;52.284;20.890;2023-04-03T12:50:24;3.10;;;1.10;;
41141;SDS011;63666;52.284;20.890;2023-04-03T12:53:04;2.60;;;1.00;;
41141;SDS011;63666;52.284;20.890;2023-04-03T12:55:46;3.10;;;1.00;;
41141;SDS011;63666;52.284;20.890;2023-04-03T12:58:25;3.00;;;1.10;;
41141;SDS011;63666;52.284;20.890;2023-04-03T13:01:03;3.20;;;1.10;;
41141;SDS011;63666;52.284;20.890;2023-04-03T13:03:44;3.30;;;1.20;;
41141;SDS011;63666;52.284;20.890;2023-04-03T13:06:21;3.50;;;1.20;;
41141;SDS011;63666;52.284;20.890;2023-04-03T13:08:59;3.20;;;1.20;;
41141;SDS011;63666;52.284;20.890;2023-04-03T13:11:36;2.80;;;1.20;;
41141;SDS011;63666;52.284;20.890;2023-04-03T13:14:21;3.20;;;1.20;;
41141;SDS011;63666;52.284;20.890;2023-04-03T13:17:03;2.90;;;1.10;;
41141;SDS011;63666;52.284;20.890;2023-04-03T13:19:41;3.10;;;1.20;;
41141;SDS011;63666;52.284;20.890;2023-04-03T13:22:26;2.90;;;1.10;;
41141;SDS011;63666;52.284;20.890;2023-04-03T13:25:07;2.90;;;1.10;;
41141;SDS011;63666;52.284;20.890;2023-04-03T13:27:55;3.10;;;1.10;;
41141;SDS011;63666;52.284;20.890;2023-04-03T13:30:56;3.00;;;1.10;;
41141;SDS011;63666;52.284;20.890;2023-04-03T13:33:37;2.80;;;1.20;;
41141;SDS011;63666;52.284;20.890;2023-04-03T13:36:20;3.80;;;1.10;;
41141;SDS011;63666;52.284;20.890;2023-04-03T13:39:06;3.60;;;1.10;;
41141;SDS011;63666;52.284;20.890;2023-04-03T13:41:56;2.70;;;1.00;;
41141;SDS011;63666;52.284;20.890;2023-04-03T13:44:37;2.80;;;1.00;;
41141;SDS011;63666;52.284;20.890;2023-04-03T13:47:21;3.00;;;1.10;;
41141;SDS011;63666;52.284;20.890;2023-04-03T13:50:14;2.30;;;0.90;;
41141;SDS011;63666;52.284;20.890;2023-04-03T13:52:54;2.90;;;1.00;;
41141;SDS011;63666;52.284;20.890;2023-04-03T13:55:35;3.00;;;1.10;;
41141;SDS011;63666;52.284;20.890;2023-04-03T13:58:24;2.90;;;1.10;;
41141;SDS011;63666;52.284;20.890;2023-04-03T14:01:08;2.60;;;0.90;;
41141;SDS011;63666;52.284;20.890;2023-04-03T14:03:54;2.50;;;1.00;;
41141;SDS011;63666;52.284;20.890;2023-04-03T14:06:30;2.60;;;1.00;;
41141;SDS011;63666;52.284;20.890;2023-04-03T14:09:07;2.30;;;0.90;;
41141;SDS011;63666;52.284;20.890;2023-04-03T14:11:52;3.30;;;1.10;;
41141;SDS011;63666;52.284;20.890;2023-04-03T14:14:42;2.90;;;1.00;;
41141;SDS011;63666;52.284;20.890;2023-04-03T14:17:20;2.90;;;0.90;;
41141;SDS011;63666;52.284;20.890;2023-04-03T14:20:00;3.10;;;1.20;;
41141;SDS011;63666;52.284;20.890;2023-04-03T14:22:37;2.70;;;0.90;;
41141;SDS011;63666;52.284;20.890;2023-04-03T14:25:13;3.10;;;1.00;;
41141;SDS011;63666;52.284;20.890;2023-04-03T14:27:53;2.60;;;1.00;;
41141;SDS011;63666;52.284;20.890;2023-04-03T14:33:14;2.80;;;0.90;;
41141;SDS011;63666;52.284;20.890;2023-04-03T14:35:53;3.00;;;1.10;;
41141;SDS011;63666;52.284;20.890;2023-04-03T14:38:33;2.40;;;0.90;;
41141;SDS011;63666;52.284;20.890;2023-04-03T14:41:12;3.40;;;1.00;;
41141;SDS011;63666;52.284;20.890;2023-04-03T14:43:48;3.50;;;1.20;;
41141;SDS011;63666;52.284;20.890;2023-04-03T14:46:36;2.60;;;1.00;;
41141;SDS011;63666;52.284;20.890;2023-04-03T14:49:28;2.70;;;1.10;;
41141;SDS011;63666;52.284;20.890;2023-04-03T14:52:09;2.20;;;0.80;;
41141;SDS011;63666;52.284;20.890;2023-04-03T14:54:53;3.30;;;1.10;;
41141;SDS011;63666;52.284;20.890;2023-04-03T14:57:28;2.60;;;1.00;;
41141;SDS011;63666;52.284;20.890;2023-04-03T15:00:11;2.70;;;1.10;;
41141;SDS011;63666;52.284;20.890;2023-04-03T15:02:52;2.50;;;0.90;;
41141;SDS011;63666;52.284;20.890;2023-04-03T15:05:27;2.30;;;0.90;;
41141;SDS011;63666;52.284;20.890;2023-04-03T15:08:04;2.40;;;0.90;;
41141;SDS011;63666;52.284;20.890;2023-04-03T15:10:42;2.50;;;0.90;;
41141;SDS011;63666;52.284;20.890;2023-04-03T15:13:16;2.50;;;0.90;;
41141;SDS011;63666;52.284;20.890;2023-04-03T15:15:53;2.20;;;0.90;;
41141;SDS011;63666;52.284;20.890;2023-04-03T15:18:27;2.10;;;0.80;;
41141;SDS011;63666;52.284;20.890;2023-04-03T15:21:07;2.70;;;0.90;;
41141;SDS011;63666;52.284;20.890;2023-04-03T15:23:43;2.80;;;1.00;;
41141;SDS011;63666;52.284;20.890;2023-04-03T15:26:20;2.20;;;0.90;;
41141;SDS011;63666;52.284;20.890;2023-04-03T15:28:53;2.60;;;1.00;;
41141;SDS011;63666;52.284;20.890;2023-04-03T15:31:30;2.60;;;0.90;;
41141;SDS011;63666;52.284;20.890;2023-04-03T15:34:05;2.20;;;0.90;;
41141;SDS011;63666;52.284;20.890;2023-04-03T15:36:40;2.40;;;1.00;;
41141;SDS011;63666;52.284;20.890;2023-04-03T15:39:14;2.50;;;1.00;;
41141;SDS011;63666;52.284;20.890;2023-04-03T15:41:48;2.60;;;0.90;;
41141;SDS011;63666;52.284;20.890;2023-04-03T15:44:24;2.70;;;1.20;;
41141;SDS011;63666;52.284;20.890;2023-04-03T15:47:00;2.30;;;0.80;;
41141;SDS011;63666;52.284;20.890;2023-04-03T15:49:36;2.70;;;1.00;;
41141;SDS011;63666;52.284;20.890;2023-04-03T15:52:14;2.40;;;1.00;;
41141;SDS011;63666;52.284;20.890;2023-04-03T15:54:51;2.40;;;0.90;;
41141;SDS011;63666;52.284;20.890;2023-04-03T15:57:26;2.50;;;1.00;;
41141;SDS011;63666;52.284;20.890;2023-04-03T15:59:59;2.80;;;1.00;;
41141;SDS011;63666;52.284;20.890;2023-04-03T16:02:34;2.70;;;0.90;;
41141;SDS011;63666;52.284;20.890;2023-04-03T16:05:10;2.90;;;0.90;;
41141;SDS011;63666;52.284;20.890;2023-04-03T16:07:45;2.40;;;0.80;;